createdAt,value
2022-08-25T00:00:17.442Z,75.43
2022-08-25T00:02:55.056Z,75.46
2022-08-25T00:05:29.499Z,75.77
2022-08-25T00:08:01.183Z,75.63
2022-08-25T00:10:31.246Z,75.90
2022-08-25T00:12:59.865Z,75.74
2022-08-25T00:15:29.026Z,75.95
2022-08-25T00:17:57.472Z,75.48
2022-08-25T00:20:26.499Z,75.81
2022-08-25T00:22:56.095Z,75.71
2022-08-25T00:25:24.959Z,75.78
2022-08-25T00:27:54.671Z,75.54
2022-08-25T00:30:23.111Z,76.00
2022-08-25T00:32:57.299Z,75.83
2022-08-25T00:35:27.245Z,75.83
2022-08-25T00:37:56.416Z,75.91
2022-08-25T00:40:26.268Z,76.23
2022-08-25T00:42:56.810Z,75.99
2022-08-25T00:45:25.539Z,76.30
2022-08-25T00:47:54.019Z,76.34
2022-08-25T00:50:26.527Z,76.72
2022-08-25T00:52:58.070Z,76.67
2022-08-25T00:55:31.602Z,76.88
2022-08-25T00:58:07.913Z,76.58
2022-08-25T01:00:41.101Z,76.76
2022-08-25T01:03:09.952Z,76.99
2022-08-25T01:05:39.150Z,77.07
2022-08-25T01:08:10.092Z,77.55
2022-08-25T01:10:43.004Z,78.13
2022-08-25T01:13:19.493Z,78.28
2022-08-25T01:15:49.426Z,78.98
2022-08-25T01:18:17.842Z,79.16
2022-08-25T01:20:50.754Z,79.32
2022-08-25T01:23:20.094Z,79.50
2022-08-25T01:25:55.115Z,79.48
2022-08-25T01:28:23.566Z,79.49
2022-08-25T01:30:52.552Z,79.47
2022-08-25T01:33:21.129Z,79.12
2022-08-25T01:35:50.929Z,79.26
2022-08-25T01:38:20.988Z,79.08
2022-08-25T01:40:51.576Z,79.35
2022-08-25T01:43:32.299Z,79.15
2022-08-25T01:46:00.702Z,79.13
2022-08-25T01:48:29.014Z,79.24
2022-08-25T01:50:58.759Z,78.98
2022-08-25T01:53:33.466Z,78.98
2022-08-25T01:56:11.585Z,79.22
2022-08-25T01:58:44.654Z,79.02
2022-08-25T02:01:18.999Z,78.89
2022-08-25T02:03:52.166Z,78.99
2022-08-25T02:06:28.928Z,79.25
2022-08-25T02:09:02.051Z,79.57
2022-08-25T02:11:30.922Z,79.99
2022-08-25T02:13:59.904Z,81.66
2022-08-25T02:16:32.102Z,81.77
2022-08-25T02:19:00.860Z,81.98
2022-08-25T02:21:30.673Z,82.09
2022-08-25T02:23:59.365Z,82.62
2022-08-25T02:26:29.157Z,82.89
2022-08-25T02:28:57.681Z,82.91
2022-08-25T02:31:27.887Z,82.97
2022-08-25T02:33:57.237Z,82.99
2022-08-25T02:36:25.962Z,82.93
2022-08-25T02:38:55.723Z,82.80
2022-08-25T02:41:31.403Z,82.85
2022-08-25T02:44:01.711Z,82.72
2022-08-25T02:46:31.155Z,82.48
2022-08-25T02:48:59.889Z,82.30
2022-08-25T02:51:30.296Z,82.26
2022-08-25T02:54:02.172Z,82.09
2022-08-25T02:56:32.718Z,81.94
2022-08-25T02:59:01.959Z,81.81
2022-08-25T03:01:31.076Z,81.50
2022-08-25T03:03:59.943Z,81.58
2022-08-25T03:06:28.589Z,82.01
2022-08-25T03:08:57.615Z,81.83
2022-08-25T03:11:27.432Z,81.67
2022-08-25T03:13:56.519Z,81.49
2022-08-25T03:16:28.163Z,81.05
2022-08-25T03:18:56.810Z,81.26
2022-08-25T03:21:26.225Z,81.67
2022-08-25T03:23:54.720Z,82.30
2022-08-25T03:26:41.781Z,82.64
2022-08-25T03:29:13.634Z,82.77
2022-08-25T03:31:43.731Z,83.17
2022-08-25T03:34:12.434Z,83.44
2022-08-25T03:36:40.964Z,83.53
2022-08-25T03:39:09.449Z,83.62
2022-08-25T03:41:38.091Z,83.52
2022-08-25T03:44:09.235Z,82.94
2022-08-25T03:46:43.462Z,82.98
2022-08-25T03:49:16.083Z,82.81
2022-08-25T03:51:48.002Z,82.85
2022-08-25T03:54:18.314Z,82.84
2022-08-25T03:56:47.383Z,83.47
2022-08-25T03:59:15.939Z,84.56
2022-08-25T04:01:51.353Z,84.56
2022-08-25T04:04:25.575Z,85.10
2022-08-25T04:06:54.205Z,85.32
2022-08-25T04:09:23.294Z,84.97
2022-08-25T04:11:53.288Z,84.63
2022-08-25T04:14:24.629Z,84.52
2022-08-25T04:16:54.910Z,84.13
2022-08-25T04:19:23.502Z,83.74
2022-08-25T04:21:57.392Z,83.52
2022-08-25T04:24:25.885Z,83.40
2022-08-25T04:26:54.991Z,82.96
2022-08-25T04:29:25.428Z,82.10
2022-08-25T04:31:56.382Z,81.79
2022-08-25T04:34:30.635Z,81.58
2022-08-25T04:37:02.823Z,81.13
2022-08-25T04:39:32.191Z,80.52
2022-08-25T04:42:01.288Z,80.19
2022-08-25T04:44:31.879Z,80.27
2022-08-25T04:47:01.806Z,79.53
2022-08-25T04:49:30.622Z,79.05
2022-08-25T04:51:59.227Z,79.53
2022-08-25T04:54:28.257Z,79.60
2022-08-25T04:56:58.276Z,79.22
2022-08-25T04:59:30.006Z,79.45
2022-08-25T05:02:02.537Z,79.23
2022-08-25T05:04:35.914Z,79.15
2022-08-25T05:07:05.816Z,79.85
2022-08-25T05:09:34.628Z,79.27
2022-08-25T05:12:03.799Z,78.81
2022-08-25T05:14:33.155Z,78.39
2022-08-25T05:17:03.474Z,78.08
2022-08-25T05:19:31.987Z,77.55
2022-08-25T05:22:00.347Z,77.51
2022-08-25T05:24:29.637Z,77.14
2022-08-25T05:26:58.674Z,76.76
2022-08-25T05:29:28.147Z,75.89
2022-08-25T05:31:56.639Z,75.66
2022-08-25T05:34:26.409Z,75.88
2022-08-25T05:36:54.912Z,75.48
2022-08-25T05:39:23.275Z,76.01
2022-08-25T05:41:55.356Z,75.50
2022-08-25T05:44:23.704Z,75.43
2022-08-25T05:46:52.585Z,75.46
2022-08-25T05:49:21.115Z,75.73
2022-08-25T05:51:50.883Z,75.17
2022-08-25T05:54:19.762Z,75.69
2022-08-25T05:56:48.163Z,75.66
2022-08-25T05:59:16.537Z,75.19
2022-08-25T06:02:02.696Z,75.34
2022-08-25T06:04:31.213Z,75.57
2022-08-25T06:07:01.131Z,74.82
2022-08-25T06:09:29.615Z,75.10
2022-08-25T06:11:58.021Z,74.42
2022-08-25T06:14:27.476Z,74.59
2022-08-25T06:16:57.890Z,74.45
2022-08-25T06:19:26.403Z,74.94
2022-08-25T06:21:57.858Z,75.31
2022-08-25T06:24:29.079Z,75.14
2022-08-25T06:26:58.779Z,75.14
2022-08-25T06:29:27.443Z,75.05
2022-08-25T06:31:57.067Z,74.65
2022-08-25T06:34:25.706Z,74.83
2022-08-25T06:36:54.254Z,74.80
2022-08-25T06:39:24.085Z,75.01
2022-08-25T06:41:56.445Z,75.47
2022-08-25T06:44:27.565Z,74.46
2022-08-25T06:46:55.974Z,74.18
2022-08-25T06:49:28.284Z,74.57
2022-08-25T06:51:57.950Z,74.79
2022-08-25T06:54:26.370Z,74.65
2022-08-25T06:56:56.239Z,74.39
2022-08-25T06:59:26.411Z,74.14
2022-08-25T07:02:01.214Z,73.73
2022-08-25T07:04:32.046Z,74.52
2022-08-25T07:07:00.696Z,74.05
2022-08-25T07:09:29.076Z,74.54
2022-08-25T07:11:59.091Z,74.35
2022-08-25T07:14:27.517Z,73.65
2022-08-25T07:16:55.895Z,71.88
2022-08-25T07:19:24.371Z,68.26
2022-08-25T07:21:55.174Z,67.36
2022-08-25T07:24:24.605Z,67.12
2022-08-25T07:26:53.506Z,65.98
2022-08-25T07:29:32.762Z,67.15
2022-08-25T07:32:02.546Z,65.84
2022-08-25T07:34:52.023Z,63.08
2022-08-25T07:37:47.649Z,62.80
2022-08-25T07:40:14.686Z,64.15
2022-08-25T07:42:43.785Z,62.57
2022-08-25T07:45:15.967Z,62.85
2022-08-25T07:47:51.498Z,60.48
2022-08-25T07:50:21.718Z,60.78
2022-08-25T07:52:55.166Z,58.83
2022-08-25T07:55:24.891Z,59.36
2022-08-25T07:57:56.051Z,58.20
2022-08-25T08:00:30.155Z,56.89
2022-08-25T08:02:59.218Z,56.39
2022-08-25T08:05:28.653Z,56.59
2022-08-25T08:07:58.169Z,55.29
2022-08-25T08:11:04.010Z,54.73
2022-08-25T08:13:18.644Z,53.24
2022-08-25T08:15:48.827Z,53.30
2022-08-25T08:18:18.334Z,52.55
2022-08-25T08:20:48.813Z,53.62
2022-08-25T08:23:19.818Z,51.35
2022-08-25T08:25:48.250Z,53.27
2022-08-25T08:28:16.781Z,50.51
2022-08-25T08:30:53.608Z,51.65
2022-08-25T08:33:25.826Z,51.38
2022-08-25T08:36:04.931Z,49.99
2022-08-25T08:38:34.972Z,49.97
2022-08-25T08:42:09.769Z,51.39
2022-08-25T08:44:41.374Z,49.41
2022-08-25T08:47:22.503Z,48.88
2022-08-25T08:50:03.970Z,50.15
2022-08-25T08:52:41.818Z,49.97
2022-08-25T08:55:33.641Z,49.40
2022-08-25T08:58:07.552Z,49.20
2022-08-25T09:00:42.528Z,49.67
2022-08-25T09:03:35.227Z,50.58
2022-08-25T09:06:10.187Z,50.77
2022-08-25T09:08:39.803Z,49.37
2022-08-25T09:11:23.796Z,49.89
2022-08-25T09:14:29.419Z,48.82
2022-08-25T09:17:07.108Z,48.63
2022-08-25T09:20:05.469Z,49.47
2022-08-25T09:23:01.786Z,48.73
2022-08-25T09:25:53.448Z,49.60
2022-08-25T09:28:30.248Z,50.10
2022-08-25T09:31:02.964Z,46.84
2022-08-25T09:33:35.633Z,46.77
2022-08-25T09:36:08.841Z,44.61
2022-08-25T09:38:39.322Z,44.01
2022-08-25T09:41:11.309Z,43.70
2022-08-25T09:43:44.616Z,43.25
2022-08-25T09:46:15.824Z,43.15
2022-08-25T09:48:56.881Z,43.42
2022-08-25T09:51:37.789Z,42.43
2022-08-25T09:54:25.671Z,41.88
2022-08-25T09:57:30.810Z,42.22
2022-08-25T10:00:12.195Z,41.33
2022-08-25T10:02:42.757Z,40.35
2022-08-25T10:05:24.052Z,40.46
2022-08-25T10:07:57.305Z,39.46
2022-08-25T10:10:34.888Z,40.11
2022-08-25T10:13:06.256Z,39.27
2022-08-25T10:15:37.878Z,39.09
2022-08-25T10:18:25.893Z,38.68
2022-08-25T10:21:11.411Z,36.26
2022-08-25T10:23:44.871Z,36.73
2022-08-25T10:26:34.829Z,34.75
2022-08-25T10:29:11.882Z,35.60
2022-08-25T10:31:51.914Z,34.60
2022-08-25T10:34:44.639Z,34.43
2022-08-25T10:37:26.083Z,35.14
2022-08-25T10:40:16.731Z,35.40
2022-08-25T10:42:59.817Z,34.52
2022-08-25T10:45:47.844Z,35.36
2022-08-25T10:48:45.052Z,33.63
2022-08-25T10:51:33.370Z,33.53
2022-08-25T10:54:17.660Z,33.34
2022-08-25T10:57:00.948Z,33.95
2022-08-25T10:59:52.143Z,34.34
2022-08-25T11:03:03.449Z,34.39
2022-08-25T11:05:40.403Z,34.12
2022-08-25T11:08:16.930Z,34.58
2022-08-25T11:10:52.959Z,35.22
2022-08-25T11:13:34.691Z,34.94
2022-08-25T11:16:17.613Z,35.36
2022-08-25T11:18:55.486Z,35.94
2022-08-25T11:21:43.160Z,35.32
2022-08-25T11:24:32.056Z,34.81
2022-08-25T11:27:08.019Z,34.61
2022-08-25T11:29:39.848Z,36.61
2022-08-25T11:32:09.816Z,36.60
2022-08-25T11:34:40.102Z,36.25
2022-08-25T11:37:22.993Z,37.35
2022-08-25T11:40:20.635Z,38.07
2022-08-25T11:43:02.577Z,37.64
2022-08-25T11:45:59.884Z,37.43
2022-08-25T11:48:42.599Z,38.18
2022-08-25T11:51:14.817Z,36.90
2022-08-25T11:53:44.807Z,36.63
2022-08-25T11:56:32.727Z,37.34
2022-08-25T11:59:03.153Z,36.59
2022-08-25T12:02:02.595Z,36.64
2022-08-25T12:04:44.284Z,38.10
2022-08-25T12:07:30.134Z,35.21
2022-08-25T12:10:26.400Z,36.21
2022-08-25T12:13:25.287Z,35.70
2022-08-25T12:16:02.480Z,37.18
2022-08-25T12:18:46.634Z,36.48
2022-08-25T12:21:34.037Z,36.47
2022-08-25T12:24:26.553Z,36.62
2022-08-25T12:26:59.952Z,36.72
2022-08-25T12:29:34.666Z,36.77
2022-08-25T12:32:31.532Z,37.25
2022-08-25T12:35:32.069Z,38.26
2022-08-25T12:38:07.260Z,37.74
2022-08-25T12:40:40.660Z,38.65
2022-08-25T12:43:13.522Z,39.24
2022-08-25T12:45:47.731Z,39.96
2022-08-25T12:48:56.872Z,40.49
2022-08-25T12:51:28.899Z,40.94
2022-08-25T12:54:15.839Z,40.68
2022-08-25T12:56:51.946Z,40.21
2022-08-25T12:59:23.406Z,41.74
2022-08-25T13:02:30.382Z,43.33
2022-08-25T13:05:18.943Z,42.59
2022-08-25T13:08:15.169Z,43.51
2022-08-25T13:10:49.833Z,43.89
2022-08-25T13:13:30.830Z,45.05
2022-08-25T13:16:02.938Z,44.85
2022-08-25T13:18:34.071Z,45.24
2022-08-25T13:21:08.490Z,45.42
2022-08-25T13:23:43.257Z,44.29
2022-08-25T13:26:18.480Z,44.08
2022-08-25T13:28:57.937Z,43.29
2022-08-25T13:31:29.810Z,43.12
2022-08-25T13:34:02.296Z,43.39
2022-08-25T13:37:00.744Z,44.14
2022-08-25T13:39:53.152Z,43.04
2022-08-25T13:42:28.646Z,44.90
2022-08-25T13:44:57.494Z,46.62
2022-08-25T13:47:44.983Z,46.56
2022-08-25T13:50:33.987Z,48.07
2022-08-25T13:53:06.519Z,49.73
2022-08-25T13:55:51.806Z,51.06
2022-08-25T13:58:38.822Z,51.79
2022-08-25T14:01:22.264Z,51.96
2022-08-25T14:04:33.661Z,52.40
2022-08-25T14:07:27.353Z,52.60
2022-08-25T14:10:08.129Z,52.91
2022-08-25T14:12:45.470Z,51.75
2022-08-25T14:15:33.428Z,51.38
2022-08-25T14:18:07.889Z,52.45
2022-08-25T14:20:38.911Z,53.00
2022-08-25T14:23:18.915Z,54.33
2022-08-25T14:25:48.308Z,55.33
2022-08-25T14:28:23.221Z,55.68
2022-08-25T14:30:58.570Z,56.63
2022-08-25T14:33:32.683Z,57.18
2022-08-25T14:36:04.931Z,57.99
2022-08-25T14:38:36.689Z,59.39
2022-08-25T14:43:40.794Z,62.41
2022-08-25T14:46:17.503Z,64.26
2022-08-25T14:48:52.181Z,65.06
2022-08-25T14:51:20.588Z,65.39
2022-08-25T14:53:49.630Z,66.25
2022-08-25T14:56:18.198Z,66.98
2022-08-25T14:58:48.397Z,67.04
2022-08-25T15:01:29.184Z,66.65
2022-08-25T15:04:03.408Z,67.81
2022-08-25T15:06:32.163Z,68.04
2022-08-25T15:09:10.725Z,68.16
2022-08-25T15:11:42.515Z,69.82
2022-08-25T15:14:12.379Z,70.50
2022-08-25T15:16:46.401Z,71.28
2022-08-25T15:19:19.645Z,71.85
2022-08-25T15:21:49.690Z,72.01
2022-08-25T15:24:20.289Z,73.07
2022-08-25T15:29:22.269Z,75.00
2022-08-25T15:31:52.965Z,75.15
2022-08-25T15:34:21.490Z,75.14
2022-08-25T15:36:50.753Z,74.50
2022-08-25T15:39:19.861Z,74.77
2022-08-25T15:41:51.705Z,74.46
2022-08-25T15:44:20.385Z,74.28
2022-08-25T15:46:49.778Z,74.98
2022-08-25T15:49:23.981Z,75.82
2022-08-25T15:51:54.226Z,75.00
2022-08-25T15:54:26.756Z,73.50
2022-08-25T15:56:56.544Z,72.65
2022-08-25T15:59:25.717Z,72.02
2022-08-25T16:01:54.735Z,72.58
2022-08-25T16:04:27.454Z,72.16
2022-08-25T16:06:56.431Z,73.60
2022-08-25T16:09:27.205Z,74.03
2022-08-25T16:11:57.054Z,74.00
2022-08-25T16:14:27.763Z,75.05
2022-08-25T16:16:59.853Z,75.34
2022-08-25T16:19:30.591Z,74.06
2022-08-25T16:22:00.074Z,73.51
2022-08-25T16:24:28.543Z,74.18
2022-08-25T16:27:11.223Z,73.24
2022-08-25T16:29:42.276Z,73.56
2022-08-25T16:32:13.372Z,73.23
2022-08-25T16:34:44.537Z,72.59
2022-08-25T16:37:15.872Z,72.21
2022-08-25T16:39:46.112Z,71.30
2022-08-25T16:42:17.523Z,70.84
2022-08-25T16:44:46.619Z,70.72
2022-08-25T16:47:17.693Z,70.05
2022-08-25T16:49:50.401Z,69.51
2022-08-25T16:52:36.305Z,71.07
2022-08-25T16:55:13.891Z,71.86
2022-08-25T16:57:45.407Z,71.80
2022-08-25T17:00:22.198Z,71.51
2022-08-25T17:02:54.258Z,70.98
2022-08-25T17:05:24.021Z,73.55
2022-08-25T17:08:06.403Z,73.79
2022-08-25T17:10:37.942Z,73.20
2022-08-25T17:13:06.925Z,74.09
2022-08-25T17:15:35.689Z,76.00
2022-08-25T17:18:04.511Z,78.13
2022-08-25T17:20:34.883Z,77.03
2022-08-25T17:23:03.710Z,76.48
2022-08-25T17:25:44.079Z,76.22
2022-08-25T17:28:13.208Z,76.08
2022-08-25T17:30:43.467Z,76.04
2022-08-25T17:33:14.154Z,76.08
2022-08-25T17:35:49.435Z,77.00
2022-08-25T17:38:20.668Z,78.67
2022-08-25T17:40:49.050Z,80.39
2022-08-25T17:43:18.751Z,80.73
2022-08-25T17:45:47.045Z,81.15
2022-08-25T17:48:17.235Z,80.17
2022-08-25T17:50:47.557Z,81.95
2022-08-25T17:53:17.373Z,82.91
2022-08-25T17:55:47.303Z,82.80
2022-08-25T17:58:18.439Z,83.51
2022-08-25T18:00:47.138Z,82.91
2022-08-25T18:03:19.414Z,83.88
2022-08-25T18:05:50.338Z,84.57
2022-08-25T18:08:19.119Z,84.18
2022-08-25T18:10:48.955Z,84.42
2022-08-25T18:13:17.833Z,83.30
2022-08-25T18:15:46.559Z,83.18
2022-08-25T18:18:16.205Z,82.89
2022-08-25T18:20:46.678Z,82.59
2022-08-25T18:23:17.031Z,82.87
2022-08-25T18:25:48.928Z,84.12
2022-08-25T18:28:17.488Z,84.78
2022-08-25T18:30:47.281Z,83.94
2022-08-25T18:33:18.907Z,82.79
2022-08-25T18:35:47.467Z,82.19
2022-08-25T18:38:35.575Z,82.94
2022-08-25T18:41:08.438Z,82.44
2022-08-25T18:43:37.635Z,83.72
2022-08-25T18:46:06.848Z,83.75
2022-08-25T18:48:36.948Z,83.30
2022-08-25T18:51:07.457Z,82.73
2022-08-25T18:53:50.509Z,82.43
2022-08-25T18:56:20.243Z,83.63
2022-08-25T18:58:49.425Z,84.39
2022-08-25T19:01:19.771Z,83.11
2022-08-25T19:03:48.691Z,82.64
2022-08-25T19:06:17.218Z,83.84
2022-08-25T19:08:48.977Z,84.20
2022-08-25T19:11:22.416Z,84.00
2022-08-25T19:13:52.191Z,86.55
2022-08-25T19:16:34.662Z,86.46
2022-08-25T19:19:06.404Z,86.85
2022-08-25T19:21:35.803Z,86.51
2022-08-25T19:24:06.855Z,86.46
2022-08-25T19:26:36.977Z,86.33
2022-08-25T19:29:10.939Z,85.62
2022-08-25T19:31:42.282Z,85.93
2022-08-25T19:34:15.151Z,84.75
2022-08-25T19:36:51.667Z,84.20
2022-08-25T19:39:22.851Z,83.98
2022-08-25T19:41:53.680Z,83.41
2022-08-25T19:44:22.666Z,83.72
2022-08-25T19:46:54.942Z,83.27
2022-08-25T19:49:26.730Z,84.74
2022-08-25T19:51:57.484Z,85.93
2022-08-25T19:54:31.846Z,85.30
2022-08-25T19:57:01.221Z,85.55
2022-08-25T19:59:42.640Z,85.29
2022-08-25T20:02:17.569Z,84.93
2022-08-25T20:04:49.600Z,84.68
2022-08-25T20:07:21.253Z,85.74
2022-08-25T20:09:55.311Z,85.02
2022-08-25T20:12:24.661Z,85.31
2022-08-25T20:14:54.489Z,84.55
2022-08-25T20:17:26.369Z,85.30
2022-08-25T20:19:59.374Z,84.72
2022-08-25T20:22:31.318Z,85.09
2022-08-25T20:25:13.601Z,85.04
2022-08-25T20:27:45.697Z,85.72
2022-08-25T20:30:18.224Z,84.94
2022-08-25T20:32:47.236Z,84.61
2022-08-25T20:35:16.896Z,84.92
2022-08-25T20:37:47.037Z,84.41
2022-08-25T20:40:25.308Z,83.77
2022-08-25T20:42:54.840Z,84.03
2022-08-25T20:45:24.318Z,83.35
2022-08-25T20:47:58.778Z,82.70
2022-08-25T20:50:28.060Z,82.19
2022-08-25T20:52:58.959Z,82.22
2022-08-25T20:55:31.157Z,81.95
2022-08-25T20:57:59.794Z,81.57
2022-08-25T21:00:28.238Z,81.50
2022-08-25T21:02:56.659Z,82.53
2022-08-25T21:05:25.119Z,82.38
2022-08-25T21:07:53.492Z,82.10
2022-08-25T21:10:22.205Z,82.46
2022-08-25T21:12:53.230Z,81.78
2022-08-25T21:15:22.423Z,81.70
2022-08-25T21:17:53.187Z,81.28
2022-08-25T21:20:25.215Z,81.02
2022-08-25T21:22:54.443Z,80.59
2022-08-25T21:25:23.051Z,80.27
2022-08-25T21:27:52.763Z,80.39
2022-08-25T21:30:21.334Z,80.62
2022-08-25T21:32:53.788Z,80.79
2022-08-25T21:35:23.782Z,79.98
2022-08-25T21:37:53.820Z,79.52
2022-08-25T21:40:24.630Z,79.86
2022-08-25T21:42:54.275Z,80.70
2022-08-25T21:45:22.569Z,80.78
2022-08-25T21:47:53.058Z,80.22
2022-08-25T21:50:23.123Z,79.63
2022-08-25T21:52:54.663Z,79.48
2022-08-25T21:55:23.430Z,79.38
2022-08-25T21:57:52.663Z,79.22
2022-08-25T22:00:23.399Z,80.00
2022-08-25T22:02:54.370Z,79.69
2022-08-25T22:05:23.581Z,79.22
2022-08-25T22:07:56.826Z,78.52
2022-08-25T22:10:25.249Z,78.36
2022-08-25T22:12:53.827Z,78.43
2022-08-25T22:15:26.323Z,78.07
2022-08-25T22:17:54.642Z,77.72
2022-08-25T22:20:22.956Z,77.05
2022-08-25T22:22:51.235Z,76.84
2022-08-25T22:25:23.533Z,76.84
2022-08-25T22:27:56.682Z,76.30
2022-08-25T22:30:29.472Z,75.72
2022-08-25T22:32:59.447Z,75.59
2022-08-25T22:35:28.581Z,75.52
2022-08-25T22:37:56.866Z,76.05
2022-08-25T22:40:27.143Z,75.91
2022-08-25T22:42:57.369Z,77.15
2022-08-25T22:45:28.711Z,77.11
2022-08-25T22:47:57.202Z,76.82
2022-08-25T22:50:26.148Z,77.56
2022-08-25T22:52:54.687Z,77.41
2022-08-25T22:55:24.276Z,77.24
2022-08-25T22:57:56.449Z,77.53
2022-08-25T23:00:25.379Z,77.32
2022-08-25T23:02:55.588Z,77.45
2022-08-25T23:05:24.361Z,77.56
2022-08-25T23:07:52.642Z,78.10
2022-08-25T23:10:22.799Z,78.06
2022-08-25T23:12:51.618Z,78.17
2022-08-25T23:15:19.938Z,78.22
2022-08-25T23:17:48.196Z,78.50
2022-08-25T23:20:36.467Z,78.17
2022-08-25T23:23:13.798Z,78.56
2022-08-25T23:25:42.113Z,78.11
2022-08-25T23:28:10.355Z,78.42
2022-08-25T23:30:39.966Z,79.85
2022-08-25T23:33:12.015Z,79.23
2022-08-25T23:35:42.051Z,80.09
2022-08-25T23:38:11.819Z,79.99
2022-08-25T23:40:43.754Z,79.21
2022-08-25T23:43:12.762Z,78.61
2022-08-25T23:45:41.893Z,77.87
2022-08-25T23:48:10.186Z,78.08
2022-08-25T23:50:46.491Z,78.05
2022-08-25T23:53:16.755Z,77.97
2022-08-25T23:55:52.817Z,78.11
2022-08-25T23:58:22.377Z,78.24
